sensor_id;sensor_type;location;lat;lon;timestamp;P1;durP1;ratioP1;P2;durP2;ratioP2
9102;SDS011;4587;51.434;6.788;2023-04-24T00:00:05;1.37;;;1.10;;
9102;SDS011;4587;51.434;6.788;2023-04-24T00:02:32;1.57;;;1.10;;
9102;SDS011;4587;51.434;6.788;2023-04-24T00:04:58;1.57;;;1.00;;
9102;SDS011;4587;51.434;6.788;2023-04-24T00:07:28;1.37;;;0.97;;
9102;SDS011;4587;51.434;6.788;2023-04-24T00:09:54;3.00;;;1.13;;
9102;SDS011;4587;51.434;6.788;2023-04-24T00:12:20;1.07;;;0.90;;
9102;SDS011;4587;51.434;6.788;2023-04-24T00:14:45;3.07;;;1.00;;
9102;SDS011;4587;51.434;6.788;2023-04-24T00:17:11;1.67;;;0.90;;
9102;SDS011;4587;51.434;6.788;2023-04-24T00:19:37;2.40;;;1.07;;
9102;SDS011;4587;51.434;6.788;2023-04-24T00:22:03;2.03;;;1.20;;
9102;SDS011;4587;51.434;6.788;2023-04-24T00:24:29;1.20;;;1.10;;
9102;SDS011;4587;51.434;6.788;2023-04-24T00:26:54;5.67;;;1.67;;
9102;SDS011;4587;51.434;6.788;2023-04-24T00:29:21;3.73;;;2.03;;
9102;SDS011;4587;51.434;6.788;2023-04-24T00:31:46;3.23;;;1.87;;
9102;SDS011;4587;51.434;6.788;2023-04-24T00:34:12;4.17;;;2.10;;
9102;SDS011;4587;51.434;6.788;2023-04-24T00:36:38;4.90;;;1.80;;
9102;SDS011;4587;51.434;6.788;2023-04-24T00:39:03;2.80;;;1.60;;
9102;SDS011;4587;51.434;6.788;2023-04-24T00:41:29;3.00;;;1.90;;
9102;SDS011;4587;51.434;6.788;2023-04-24T00:43:55;4.70;;;2.00;;
9102;SDS011;4587;51.434;6.788;2023-04-24T00:46:21;5.93;;;2.23;;
9102;SDS011;4587;51.434;6.788;2023-04-24T00:48:47;2.17;;;1.70;;
9102;SDS011;4587;51.434;6.788;2023-04-24T00:51:12;2.43;;;2.13;;
9102;SDS011;4587;51.434;6.788;2023-04-24T00:53:38;2.93;;;2.20;;
9102;SDS011;4587;51.434;6.788;2023-04-24T00:56:04;2.97;;;2.10;;
9102;SDS011;4587;51.434;6.788;2023-04-24T00:58:30;3.87;;;2.37;;
9102;SDS011;4587;51.434;6.788;2023-04-24T01:00:56;5.07;;;2.73;;
9102;SDS011;4587;51.434;6.788;2023-04-24T01:03:24;4.07;;;2.60;;
9102;SDS011;4587;51.434;6.788;2023-04-24T01:05:54;3.00;;;2.70;;
9102;SDS011;4587;51.434;6.788;2023-04-24T01:08:20;3.60;;;3.03;;
9102;SDS011;4587;51.434;6.788;2023-04-24T01:10:48;3.37;;;3.07;;
9102;SDS011;4587;51.434;6.788;2023-04-24T01:13:16;4.00;;;3.23;;
9102;SDS011;4587;51.434;6.788;2023-04-24T01:15:43;3.80;;;2.80;;
9102;SDS011;4587;51.434;6.788;2023-04-24T01:18:08;4.13;;;3.50;;
9102;SDS011;4587;51.434;6.788;2023-04-24T01:20:34;5.07;;;3.70;;
9102;SDS011;4587;51.434;6.788;2023-04-24T01:23:01;4.30;;;3.33;;
9102;SDS011;4587;51.434;6.788;2023-04-24T01:25:27;3.53;;;3.23;;
9102;SDS011;4587;51.434;6.788;2023-04-24T01:27:53;5.87;;;3.90;;
9102;SDS011;4587;51.434;6.788;2023-04-24T01:30:19;5.67;;;3.77;;
9102;SDS011;4587;51.434;6.788;2023-04-24T01:32:45;6.53;;;4.37;;
9102;SDS011;4587;51.434;6.788;2023-04-24T01:35:11;6.80;;;4.63;;
9102;SDS011;4587;51.434;6.788;2023-04-24T01:37:37;5.90;;;4.87;;
9102;SDS011;4587;51.434;6.788;2023-04-24T01:40:04;8.03;;;4.63;;
9102;SDS011;4587;51.434;6.788;2023-04-24T01:42:31;9.47;;;6.57;;
9102;SDS011;4587;51.434;6.788;2023-04-24T01:44:57;10.20;;;7.00;;
9102;SDS011;4587;51.434;6.788;2023-04-24T01:47:24;8.93;;;6.53;;
9102;SDS011;4587;51.434;6.788;2023-04-24T01:49:50;9.43;;;6.30;;
9102;SDS011;4587;51.434;6.788;2023-04-24T01:52:16;8.10;;;6.53;;
9102;SDS011;4587;51.434;6.788;2023-04-24T01:54:42;9.30;;;6.87;;
9102;SDS011;4587;51.434;6.788;2023-04-24T01:57:08;9.50;;;6.50;;
9102;SDS011;4587;51.434;6.788;2023-04-24T01:59:34;8.80;;;7.60;;
9102;SDS011;4587;51.434;6.788;2023-04-24T02:02:01;9.77;;;7.03;;
9102;SDS011;4587;51.434;6.788;2023-04-24T02:04:30;11.00;;;7.10;;
9102;SDS011;4587;51.434;6.788;2023-04-24T02:06:56;9.37;;;6.93;;
9102;SDS011;4587;51.434;6.788;2023-04-24T02:09:21;11.03;;;7.00;;
9102;SDS011;4587;51.434;6.788;2023-04-24T02:11:47;12.27;;;8.07;;
9102;SDS011;4587;51.434;6.788;2023-04-24T02:14:13;9.23;;;7.70;;
9102;SDS011;4587;51.434;6.788;2023-04-24T02:16:38;13.00;;;8.03;;
9102;SDS011;4587;51.434;6.788;2023-04-24T02:19:04;12.90;;;9.03;;
9102;SDS011;4587;51.434;6.788;2023-04-24T02:21:30;13.63;;;9.30;;
9102;SDS011;4587;51.434;6.788;2023-04-24T02:23:57;11.30;;;9.03;;
9102;SDS011;4587;51.434;6.788;2023-04-24T02:26:22;11.43;;;9.30;;
9102;SDS011;4587;51.434;6.788;2023-04-24T02:28:48;13.40;;;9.77;;
9102;SDS011;4587;51.434;6.788;2023-04-24T02:31:14;13.07;;;10.40;;
9102;SDS011;4587;51.434;6.788;2023-04-24T02:33:40;12.20;;;10.60;;
9102;SDS011;4587;51.434;6.788;2023-04-24T02:36:06;14.87;;;10.53;;
9102;SDS011;4587;51.434;6.788;2023-04-24T02:38:31;18.20;;;10.77;;
9102;SDS011;4587;51.434;6.788;2023-04-24T02:40:57;15.33;;;10.13;;
9102;SDS011;4587;51.434;6.788;2023-04-24T02:43:23;13.70;;;9.53;;
9102;SDS011;4587;51.434;6.788;2023-04-24T02:45:48;13.80;;;10.20;;
9102;SDS011;4587;51.434;6.788;2023-04-24T02:48:14;11.07;;;9.83;;
9102;SDS011;4587;51.434;6.788;2023-04-24T02:50:40;13.67;;;9.90;;
9102;SDS011;4587;51.434;6.788;2023-04-24T02:53:06;11.00;;;9.70;;
9102;SDS011;4587;51.434;6.788;2023-04-24T02:55:31;15.57;;;10.27;;
9102;SDS011;4587;51.434;6.788;2023-04-24T02:57:57;15.23;;;9.93;;
9102;SDS011;4587;51.434;6.788;2023-04-24T03:00:23;17.53;;;10.93;;
9102;SDS011;4587;51.434;6.788;2023-04-24T03:02:48;20.90;;;12.57;;
9102;SDS011;4587;51.434;6.788;2023-04-24T03:05:14;16.70;;;12.27;;
9102;SDS011;4587;51.434;6.788;2023-04-24T03:07:40;20.60;;;13.10;;
9102;SDS011;4587;51.434;6.788;2023-04-24T03:10:06;17.67;;;12.30;;
9102;SDS011;4587;51.434;6.788;2023-04-24T03:12:32;18.87;;;12.30;;
9102;SDS011;4587;51.434;6.788;2023-04-24T03:14:58;13.27;;;11.27;;
9102;SDS011;4587;51.434;6.788;2023-04-24T03:17:24;15.83;;;11.50;;
9102;SDS011;4587;51.434;6.788;2023-04-24T03:19:50;17.10;;;11.87;;
9102;SDS011;4587;51.434;6.788;2023-04-24T03:22:15;17.03;;;13.13;;
9102;SDS011;4587;51.434;6.788;2023-04-24T03:24:41;17.33;;;12.40;;
9102;SDS011;4587;51.434;6.788;2023-04-24T03:27:07;18.23;;;13.40;;
9102;SDS011;4587;51.434;6.788;2023-04-24T03:29:32;17.87;;;12.30;;
9102;SDS011;4587;51.434;6.788;2023-04-24T03:31:58;19.97;;;12.07;;
9102;SDS011;4587;51.434;6.788;2023-04-24T03:34:24;19.17;;;12.53;;
9102;SDS011;4587;51.434;6.788;2023-04-24T03:36:49;19.50;;;12.30;;
9102;SDS011;4587;51.434;6.788;2023-04-24T03:39:15;16.77;;;13.23;;
9102;SDS011;4587;51.434;6.788;2023-04-24T03:41:41;14.73;;;13.10;;
9102;SDS011;4587;51.434;6.788;2023-04-24T03:44:07;20.17;;;13.67;;
9102;SDS011;4587;51.434;6.788;2023-04-24T03:46:32;16.10;;;12.43;;
9102;SDS011;4587;51.434;6.788;2023-04-24T03:48:58;17.83;;;12.63;;
9102;SDS011;4587;51.434;6.788;2023-04-24T03:51:24;16.67;;;12.10;;
9102;SDS011;4587;51.434;6.788;2023-04-24T03:53:50;18.57;;;12.60;;
9102;SDS011;4587;51.434;6.788;2023-04-24T03:56:15;16.47;;;12.53;;
9102;SDS011;4587;51.434;6.788;2023-04-24T03:58:41;15.90;;;12.33;;
9102;SDS011;4587;51.434;6.788;2023-04-24T04:01:07;15.97;;;11.50;;
9102;SDS011;4587;51.434;6.788;2023-04-24T04:03:33;15.80;;;12.17;;
9102;SDS011;4587;51.434;6.788;2023-04-24T04:05:59;15.90;;;11.50;;
9102;SDS011;4587;51.434;6.788;2023-04-24T04:08:25;15.87;;;11.27;;
9102;SDS011;4587;51.434;6.788;2023-04-24T04:10:50;17.57;;;11.60;;
9102;SDS011;4587;51.434;6.788;2023-04-24T04:13:16;20.20;;;13.57;;
9102;SDS011;4587;51.434;6.788;2023-04-24T04:15:42;19.00;;;13.77;;
9102;SDS011;4587;51.434;6.788;2023-04-24T04:18:10;17.43;;;12.60;;
9102;SDS011;4587;51.434;6.788;2023-04-24T04:20:36;15.47;;;11.70;;
9102;SDS011;4587;51.434;6.788;2023-04-24T04:23:02;17.17;;;10.47;;
9102;SDS011;4587;51.434;6.788;2023-04-24T04:25:27;12.37;;;10.00;;
9102;SDS011;4587;51.434;6.788;2023-04-24T04:27:54;12.90;;;9.63;;
9102;SDS011;4587;51.434;6.788;2023-04-24T04:30:20;15.17;;;9.93;;
9102;SDS011;4587;51.434;6.788;2023-04-24T04:32:46;15.47;;;9.50;;
9102;SDS011;4587;51.434;6.788;2023-04-24T04:35:12;11.93;;;8.90;;
9102;SDS011;4587;51.434;6.788;2023-04-24T04:37:38;13.33;;;9.43;;
9102;SDS011;4587;51.434;6.788;2023-04-24T04:40:05;11.47;;;9.30;;
9102;SDS011;4587;51.434;6.788;2023-04-24T04:42:31;10.23;;;8.83;;
9102;SDS011;4587;51.434;6.788;2023-04-24T04:45:00;10.37;;;8.60;;
9102;SDS011;4587;51.434;6.788;2023-04-24T04:47:27;10.77;;;8.23;;
9102;SDS011;4587;51.434;6.788;2023-04-24T04:49:53;11.97;;;8.17;;
9102;SDS011;4587;51.434;6.788;2023-04-24T04:52:19;12.93;;;8.00;;
9102;SDS011;4587;51.434;6.788;2023-04-24T04:54:45;10.83;;;8.33;;
9102;SDS011;4587;51.434;6.788;2023-04-24T04:57:11;11.47;;;9.40;;
9102;SDS011;4587;51.434;6.788;2023-04-24T04:59:37;13.23;;;8.80;;
9102;SDS011;4587;51.434;6.788;2023-04-24T05:02:03;12.47;;;8.90;;
9102;SDS011;4587;51.434;6.788;2023-04-24T05:04:31;13.97;;;9.77;;
9102;SDS011;4587;51.434;6.788;2023-04-24T05:06:57;12.03;;;9.80;;
9102;SDS011;4587;51.434;6.788;2023-04-24T05:09:22;11.47;;;8.77;;
9102;SDS011;4587;51.434;6.788;2023-04-24T05:11:48;10.83;;;8.80;;
9102;SDS011;4587;51.434;6.788;2023-04-24T05:14:14;11.30;;;8.63;;
9102;SDS011;4587;51.434;6.788;2023-04-24T05:16:39;9.67;;;8.40;;
9102;SDS011;4587;51.434;6.788;2023-04-24T05:19:05;11.37;;;9.03;;
9102;SDS011;4587;51.434;6.788;2023-04-24T05:21:31;14.13;;;8.57;;
9102;SDS011;4587;51.434;6.788;2023-04-24T05:23:57;9.27;;;8.27;;
9102;SDS011;4587;51.434;6.788;2023-04-24T05:26:23;9.67;;;8.60;;
9102;SDS011;4587;51.434;6.788;2023-04-24T05:28:49;11.97;;;10.07;;
9102;SDS011;4587;51.434;6.788;2023-04-24T05:31:15;16.70;;;11.57;;
9102;SDS011;4587;51.434;6.788;2023-04-24T05:33:42;15.07;;;11.43;;
9102;SDS011;4587;51.434;6.788;2023-04-24T05:36:08;11.87;;;10.43;;
9102;SDS011;4587;51.434;6.788;2023-04-24T05:38:34;11.73;;;9.43;;
9102;SDS011;4587;51.434;6.788;2023-04-24T05:40:59;10.57;;;9.43;;
9102;SDS011;4587;51.434;6.788;2023-04-24T05:43:25;10.13;;;9.23;;
9102;SDS011;4587;51.434;6.788;2023-04-24T05:45:51;11.83;;;10.13;;
9102;SDS011;4587;51.434;6.788;2023-04-24T05:48:18;10.87;;;9.77;;
9102;SDS011;4587;51.434;6.788;2023-04-24T05:50:44;10.37;;;9.27;;
9102;SDS011;4587;51.434;6.788;2023-04-24T05:53:10;13.47;;;9.93;;
9102;SDS011;4587;51.434;6.788;2023-04-24T05:55:36;9.77;;;8.77;;
9102;SDS011;4587;51.434;6.788;2023-04-24T05:58:01;9.57;;;8.00;;
9102;SDS011;4587;51.434;6.788;2023-04-24T06:00:27;15.00;;;8.97;;
9102;SDS011;4587;51.434;6.788;2023-04-24T06:02:53;8.77;;;7.87;;
9102;SDS011;4587;51.434;6.788;2023-04-24T06:05:19;11.17;;;7.90;;
9102;SDS011;4587;51.434;6.788;2023-04-24T06:07:45;8.47;;;7.57;;
9102;SDS011;4587;51.434;6.788;2023-04-24T06:10:10;11.03;;;8.23;;
9102;SDS011;4587;51.434;6.788;2023-04-24T06:12:36;12.27;;;9.37;;
9102;SDS011;4587;51.434;6.788;2023-04-24T06:15:02;9.80;;;8.23;;
9102;SDS011;4587;51.434;6.788;2023-04-24T06:17:28;10.17;;;7.93;;
9102;SDS011;4587;51.434;6.788;2023-04-24T06:19:54;10.70;;;8.43;;
9102;SDS011;4587;51.434;6.788;2023-04-24T06:22:20;9.07;;;8.07;;
9102;SDS011;4587;51.434;6.788;2023-04-24T06:24:45;10.10;;;7.33;;
9102;SDS011;4587;51.434;6.788;2023-04-24T06:27:13;7.93;;;7.03;;
9102;SDS011;4587;51.434;6.788;2023-04-24T06:29:39;7.73;;;6.93;;
9102;SDS011;4587;51.434;6.788;2023-04-24T06:32:04;8.90;;;7.33;;
9102;SDS011;4587;51.434;6.788;2023-04-24T06:34:30;7.63;;;6.93;;
9102;SDS011;4587;51.434;6.788;2023-04-24T06:36:57;7.83;;;7.03;;
9102;SDS011;4587;51.434;6.788;2023-04-24T06:39:23;10.80;;;7.37;;
9102;SDS011;4587;51.434;6.788;2023-04-24T06:41:49;9.27;;;7.10;;
9102;SDS011;4587;51.434;6.788;2023-04-24T06:44:15;10.00;;;7.13;;
9102;SDS011;4587;51.434;6.788;2023-04-24T06:46:41;8.27;;;6.93;;
9102;SDS011;4587;51.434;6.788;2023-04-24T06:49:07;9.10;;;7.57;;
9102;SDS011;4587;51.434;6.788;2023-04-24T06:51:33;9.63;;;7.83;;
9102;SDS011;4587;51.434;6.788;2023-04-24T06:53:58;10.90;;;7.50;;
9102;SDS011;4587;51.434;6.788;2023-04-24T06:56:24;10.03;;;7.40;;
9102;SDS011;4587;51.434;6.788;2023-04-24T06:58:54;8.73;;;6.20;;
9102;SDS011;4587;51.434;6.788;2023-04-24T07:01:20;7.57;;;5.90;;
9102;SDS011;4587;51.434;6.788;2023-04-24T07:03:45;5.33;;;4.83;;
9102;SDS011;4587;51.434;6.788;2023-04-24T07:06:11;6.23;;;4.50;;
9102;SDS011;4587;51.434;6.788;2023-04-24T07:08:37;6.83;;;4.60;;
9102;SDS011;4587;51.434;6.788;2023-04-24T07:11:03;5.83;;;4.03;;
9102;SDS011;4587;51.434;6.788;2023-04-24T07:13:29;5.07;;;3.80;;
9102;SDS011;4587;51.434;6.788;2023-04-24T07:15:55;4.40;;;3.50;;
9102;SDS011;4587;51.434;6.788;2023-04-24T07:18:21;4.23;;;3.23;;
9102;SDS011;4587;51.434;6.788;2023-04-24T07:20:47;3.87;;;2.73;;
9102;SDS011;4587;51.434;6.788;2023-04-24T07:23:15;3.47;;;2.80;;
9102;SDS011;4587;51.434;6.788;2023-04-24T07:25:41;2.97;;;2.13;;
9102;SDS011;4587;51.434;6.788;2023-04-24T07:28:06;1.97;;;1.80;;
9102;SDS011;4587;51.434;6.788;2023-04-24T07:30:32;3.30;;;2.60;;
9102;SDS011;4587;51.434;6.788;2023-04-24T07:32:58;2.53;;;2.33;;
9102;SDS011;4587;51.434;6.788;2023-04-24T07:35:25;3.23;;;2.67;;
9102;SDS011;4587;51.434;6.788;2023-04-24T07:37:52;3.23;;;2.93;;
9102;SDS011;4587;51.434;6.788;2023-04-24T07:40:18;2.40;;;2.20;;
9102;SDS011;4587;51.434;6.788;2023-04-24T07:42:44;3.33;;;1.80;;
9102;SDS011;4587;51.434;6.788;2023-04-24T07:45:10;1.37;;;1.00;;
9102;SDS011;4587;51.434;6.788;2023-04-24T07:47:36;1.50;;;1.07;;
9102;SDS011;4587;51.434;6.788;2023-04-24T07:50:03;0.70;;;0.70;;
9102;SDS011;4587;51.434;6.788;2023-04-24T07:52:28;0.70;;;0.63;;
9102;SDS011;4587;51.434;6.788;2023-04-24T07:54:55;1.10;;;0.70;;
9102;SDS011;4587;51.434;6.788;2023-04-24T07:57:26;0.90;;;0.80;;
9102;SDS011;4587;51.434;6.788;2023-04-24T07:59:52;3.17;;;1.00;;
9102;SDS011;4587;51.434;6.788;2023-04-24T08:02:17;1.57;;;1.10;;
9102;SDS011;4587;51.434;6.788;2023-04-24T08:04:43;1.30;;;1.00;;
9102;SDS011;4587;51.434;6.788;2023-04-24T08:07:08;1.27;;;1.20;;
9102;SDS011;4587;51.434;6.788;2023-04-24T08:09:34;2.20;;;1.40;;
9102;SDS011;4587;51.434;6.788;2023-04-24T08:12:00;1.90;;;1.20;;
9102;SDS011;4587;51.434;6.788;2023-04-24T08:14:27;1.40;;;1.13;;
9102;SDS011;4587;51.434;6.788;2023-04-24T08:16:56;1.40;;;1.30;;
9102;SDS011;4587;51.434;6.788;2023-04-24T08:19:21;1.60;;;1.50;;
9102;SDS011;4587;51.434;6.788;2023-04-24T08:21:47;2.50;;;1.60;;
9102;SDS011;4587;51.434;6.788;2023-04-24T08:24:13;2.40;;;1.63;;
9102;SDS011;4587;51.434;6.788;2023-04-24T08:26:41;5.37;;;2.90;;
9102;SDS011;4587;51.434;6.788;2023-04-24T08:29:07;4.60;;;2.57;;
9102;SDS011;4587;51.434;6.788;2023-04-24T08:31:33;3.50;;;2.23;;
9102;SDS011;4587;51.434;6.788;2023-04-24T08:33:59;2.33;;;1.50;;
9102;SDS011;4587;51.434;6.788;2023-04-24T08:36:25;1.40;;;1.30;;
9102;SDS011;4587;51.434;6.788;2023-04-24T08:38:51;1.53;;;1.00;;
9102;SDS011;4587;51.434;6.788;2023-04-24T08:41:17;2.47;;;1.20;;
9102;SDS011;4587;51.434;6.788;2023-04-24T08:43:45;2.90;;;0.87;;
9102;SDS011;4587;51.434;6.788;2023-04-24T08:46:11;1.60;;;1.00;;
9102;SDS011;4587;51.434;6.788;2023-04-24T08:48:38;2.97;;;1.00;;
9102;SDS011;4587;51.434;6.788;2023-04-24T08:51:06;1.40;;;0.93;;
9102;SDS011;4587;51.434;6.788;2023-04-24T08:53:32;1.60;;;0.80;;
9102;SDS011;4587;51.434;6.788;2023-04-24T08:55:59;2.63;;;1.20;;
9102;SDS011;4587;51.434;6.788;2023-04-24T08:58:26;2.13;;;1.10;;
9102;SDS011;4587;51.434;6.788;2023-04-24T09:00:56;1.97;;;1.07;;
9102;SDS011;4587;51.434;6.788;2023-04-24T09:03:23;1.40;;;1.00;;
9102;SDS011;4587;51.434;6.788;2023-04-24T09:05:51;3.83;;;2.03;;
9102;SDS011;4587;51.434;6.788;2023-04-24T09:08:19;4.13;;;2.87;;
9102;SDS011;4587;51.434;6.788;2023-04-24T09:10:48;5.57;;;3.50;;
9102;SDS011;4587;51.434;6.788;2023-04-24T09:13:20;5.63;;;5.00;;
9102;SDS011;4587;51.434;6.788;2023-04-24T09:15:46;6.93;;;5.00;;
9102;SDS011;4587;51.434;6.788;2023-04-24T09:18:12;6.67;;;5.60;;
9102;SDS011;4587;51.434;6.788;2023-04-24T09:23:29;6.13;;;5.20;;
9102;SDS011;4587;51.434;6.788;2023-04-24T09:25:56;6.37;;;5.23;;
9102;SDS011;4587;51.434;6.788;2023-04-24T09:28:30;8.10;;;5.37;;
9102;SDS011;4587;51.434;6.788;2023-04-24T09:31:03;7.77;;;4.97;;
9102;SDS011;4587;51.434;6.788;2023-04-24T09:33:40;5.47;;;4.10;;
9102;SDS011;4587;51.434;6.788;2023-04-24T09:36:29;5.80;;;3.90;;
9102;SDS011;4587;51.434;6.788;2023-04-24T09:38:59;6.50;;;3.80;;
9102;SDS011;4587;51.434;6.788;2023-04-24T09:41:26;4.67;;;3.87;;
9102;SDS011;4587;51.434;6.788;2023-04-24T09:43:56;5.03;;;4.30;;
9102;SDS011;4587;51.434;6.788;2023-04-24T09:46:29;5.27;;;4.73;;
9102;SDS011;4587;51.434;6.788;2023-04-24T09:48:56;7.17;;;5.10;;
9102;SDS011;4587;51.434;6.788;2023-04-24T09:51:35;6.73;;;4.50;;
9102;SDS011;4587;51.434;6.788;2023-04-24T09:54:02;6.23;;;4.60;;
9102;SDS011;4587;51.434;6.788;2023-04-24T09:56:29;6.53;;;4.77;;
9102;SDS011;4587;51.434;6.788;2023-04-24T09:59:05;6.27;;;5.00;;
9102;SDS011;4587;51.434;6.788;2023-04-24T10:01:31;5.73;;;5.00;;
9102;SDS011;4587;51.434;6.788;2023-04-24T10:03:57;7.97;;;5.87;;
9102;SDS011;4587;51.434;6.788;2023-04-24T10:06:30;8.83;;;5.43;;
9102;SDS011;4587;51.434;6.788;2023-04-24T10:08:59;7.20;;;5.10;;
9102;SDS011;4587;51.434;6.788;2023-04-24T10:11:28;9.60;;;5.40;;
9102;SDS011;4587;51.434;6.788;2023-04-24T10:13:55;8.83;;;4.80;;
9102;SDS011;4587;51.434;6.788;2023-04-24T10:16:22;11.77;;;5.20;;
9102;SDS011;4587;51.434;6.788;2023-04-24T10:18:48;7.63;;;4.93;;
9102;SDS011;4587;51.434;6.788;2023-04-24T10:21:15;9.97;;;4.73;;
9102;SDS011;4587;51.434;6.788;2023-04-24T10:23:41;9.37;;;4.37;;
9102;SDS011;4587;51.434;6.788;2023-04-24T10:26:11;8.57;;;4.17;;
9102;SDS011;4587;51.434;6.788;2023-04-24T10:28:44;10.50;;;4.30;;
9102;SDS011;4587;51.434;6.788;2023-04-24T10:31:11;10.00;;;4.47;;
9102;SDS011;4587;51.434;6.788;2023-04-24T10:33:38;13.03;;;5.10;;
9102;SDS011;4587;51.434;6.788;2023-04-24T10:36:10;12.47;;;4.50;;
9102;SDS011;4587;51.434;6.788;2023-04-24T10:38:39;6.87;;;4.20;;
9102;SDS011;4587;51.434;6.788;2023-04-24T10:41:08;9.67;;;5.07;;
9102;SDS011;4587;51.434;6.788;2023-04-24T10:43:48;9.73;;;5.20;;
9102;SDS011;4587;51.434;6.788;2023-04-24T10:46:34;11.90;;;4.60;;
9102;SDS011;4587;51.434;6.788;2023-04-24T10:49:10;13.90;;;4.67;;
9102;SDS011;4587;51.434;6.788;2023-04-24T10:51:45;8.83;;;4.20;;
9102;SDS011;4587;51.434;6.788;2023-04-24T10:54:28;12.93;;;4.63;;
9102;SDS011;4587;51.434;6.788;2023-04-24T11:00:32;11.47;;;4.60;;
9102;SDS011;4587;51.434;6.788;2023-04-24T11:02:37;12.13;;;4.67;;
9102;SDS011;4587;51.434;6.788;2023-04-24T11:05:05;12.67;;;4.03;;
9102;SDS011;4587;51.434;6.788;2023-04-24T11:10:37;10.07;;;4.63;;
9102;SDS011;4587;51.434;6.788;2023-04-24T11:13:04;12.37;;;4.73;;
9102;SDS011;4587;51.434;6.788;2023-04-24T11:15:29;11.70;;;5.00;;
9102;SDS011;4587;51.434;6.788;2023-04-24T11:17:55;13.57;;;5.47;;
9102;SDS011;4587;51.434;6.788;2023-04-24T11:20:22;13.30;;;5.00;;
9102;SDS011;4587;51.434;6.788;2023-04-24T11:22:48;14.00;;;5.10;;
9102;SDS011;4587;51.434;6.788;2023-04-24T11:25:19;12.27;;;4.10;;
9102;SDS011;4587;51.434;6.788;2023-04-24T11:27:50;11.50;;;3.87;;
9102;SDS011;4587;51.434;6.788;2023-04-24T11:30:29;9.30;;;3.90;;
9102;SDS011;4587;51.434;6.788;2023-04-24T11:32:55;9.07;;;3.50;;
9102;SDS011;4587;51.434;6.788;2023-04-24T11:35:30;9.40;;;3.57;;
9102;SDS011;4587;51.434;6.788;2023-04-24T11:38:03;9.60;;;3.63;;
9102;SDS011;4587;51.434;6.788;2023-04-24T11:40:30;12.03;;;4.10;;
9102;SDS011;4587;51.434;6.788;2023-04-24T11:42:56;8.40;;;3.47;;
9102;SDS011;4587;51.434;6.788;2023-04-24T11:45:25;10.40;;;3.63;;
9102;SDS011;4587;51.434;6.788;2023-04-24T11:47:56;11.77;;;3.30;;
9102;SDS011;4587;51.434;6.788;2023-04-24T11:50:23;8.47;;;3.10;;
9102;SDS011;4587;51.434;6.788;2023-04-24T11:52:54;9.90;;;3.23;;
9102;SDS011;4587;51.434;6.788;2023-04-24T11:57:46;8.93;;;3.70;;
9102;SDS011;4587;51.434;6.788;2023-04-24T12:00:17;7.90;;;3.17;;
9102;SDS011;4587;51.434;6.788;2023-04-24T12:02:45;7.60;;;3.30;;
9102;SDS011;4587;51.434;6.788;2023-04-24T12:05:25;9.73;;;3.67;;
9102;SDS011;4587;51.434;6.788;2023-04-24T12:07:52;7.50;;;3.50;;
9102;SDS011;4587;51.434;6.788;2023-04-24T12:10:25;10.07;;;3.67;;
9102;SDS011;4587;51.434;6.788;2023-04-24T12:12:52;9.40;;;3.93;;
9102;SDS011;4587;51.434;6.788;2023-04-24T12:15:21;10.07;;;4.30;;
9102;SDS011;4587;51.434;6.788;2023-04-24T12:17:47;10.90;;;3.40;;
9102;SDS011;4587;51.434;6.788;2023-04-24T12:20:16;6.10;;;3.60;;
9102;SDS011;4587;51.434;6.788;2023-04-24T12:22:45;10.20;;;3.70;;
9102;SDS011;4587;51.434;6.788;2023-04-24T12:25:12;6.83;;;3.57;;
9102;SDS011;4587;51.434;6.788;2023-04-24T12:27:38;9.37;;;3.53;;
9102;SDS011;4587;51.434;6.788;2023-04-24T12:30:04;6.00;;;2.77;;
9102;SDS011;4587;51.434;6.788;2023-04-24T12:32:34;7.67;;;3.00;;
9102;SDS011;4587;51.434;6.788;2023-04-24T12:35:00;6.97;;;2.93;;
9102;SDS011;4587;51.434;6.788;2023-04-24T12:37:26;7.27;;;2.97;;
9102;SDS011;4587;51.434;6.788;2023-04-24T12:40:07;4.80;;;2.10;;
9102;SDS011;4587;51.434;6.788;2023-04-24T12:42:35;3.60;;;2.10;;
9102;SDS011;4587;51.434;6.788;2023-04-24T12:45:06;4.20;;;1.90;;
9102;SDS011;4587;51.434;6.788;2023-04-24T12:47:33;3.90;;;2.00;;
9102;SDS011;4587;51.434;6.788;2023-04-24T12:50:00;6.37;;;2.23;;
9102;SDS011;4587;51.434;6.788;2023-04-24T12:52:27;4.70;;;2.07;;
9102;SDS011;4587;51.434;6.788;2023-04-24T12:54:54;5.30;;;2.20;;
9102;SDS011;4587;51.434;6.788;2023-04-24T12:57:24;4.47;;;2.23;;
9102;SDS011;4587;51.434;6.788;2023-04-24T12:59:54;10.77;;;2.67;;
9102;SDS011;4587;51.434;6.788;2023-04-24T13:02:22;5.63;;;1.83;;
9102;SDS011;4587;51.434;6.788;2023-04-24T13:04:48;2.77;;;1.47;;
9102;SDS011;4587;51.434;6.788;2023-04-24T13:07:14;4.67;;;1.57;;
9102;SDS011;4587;51.434;6.788;2023-04-24T13:09:44;7.47;;;1.60;;
9102;SDS011;4587;51.434;6.788;2023-04-24T13:12:11;2.43;;;0.97;;
9102;SDS011;4587;51.434;6.788;2023-04-24T13:14:37;3.73;;;1.33;;
9102;SDS011;4587;51.434;6.788;2023-04-24T13:17:03;3.63;;;1.20;;
9102;SDS011;4587;51.434;6.788;2023-04-24T13:19:29;6.60;;;1.87;;
9102;SDS011;4587;51.434;6.788;2023-04-24T13:21:55;5.27;;;2.03;;
9102;SDS011;4587;51.434;6.788;2023-04-24T13:24:25;6.00;;;1.77;;
9102;SDS011;4587;51.434;6.788;2023-04-24T13:26:51;2.93;;;1.40;;
9102;SDS011;4587;51.434;6.788;2023-04-24T13:29:17;3.80;;;1.50;;
9102;SDS011;4587;51.434;6.788;2023-04-24T13:31:43;5.23;;;1.47;;
9102;SDS011;4587;51.434;6.788;2023-04-24T13:34:09;4.37;;;1.13;;
9102;SDS011;4587;51.434;6.788;2023-04-24T13:36:35;3.93;;;1.30;;
9102;SDS011;4587;51.434;6.788;2023-04-24T13:39:01;3.83;;;1.30;;
9102;SDS011;4587;51.434;6.788;2023-04-24T13:41:29;6.97;;;1.37;;
9102;SDS011;4587;51.434;6.788;2023-04-24T13:43:55;4.73;;;1.40;;
9102;SDS011;4587;51.434;6.788;2023-04-24T13:46:21;3.43;;;1.60;;
9102;SDS011;4587;51.434;6.788;2023-04-24T13:48:47;4.00;;;1.60;;
9102;SDS011;4587;51.434;6.788;2023-04-24T13:51:12;5.50;;;1.70;;
9102;SDS011;4587;51.434;6.788;2023-04-24T13:53:38;6.70;;;1.53;;
9102;SDS011;4587;51.434;6.788;2023-04-24T13:56:04;3.53;;;1.37;;
9102;SDS011;4587;51.434;6.788;2023-04-24T13:58:31;2.93;;;1.30;;
9102;SDS011;4587;51.434;6.788;2023-04-24T14:00:57;4.73;;;1.60;;
9102;SDS011;4587;51.434;6.788;2023-04-24T14:03:23;3.20;;;1.30;;
9102;SDS011;4587;51.434;6.788;2023-04-24T14:05:49;3.87;;;1.40;;
9102;SDS011;4587;51.434;6.788;2023-04-24T14:08:15;5.60;;;1.43;;
9102;SDS011;4587;51.434;6.788;2023-04-24T14:10:40;3.83;;;1.63;;
9102;SDS011;4587;51.434;6.788;2023-04-24T14:13:07;2.53;;;1.37;;
9102;SDS011;4587;51.434;6.788;2023-04-24T14:15:34;3.47;;;1.27;;
9102;SDS011;4587;51.434;6.788;2023-04-24T14:18:01;4.63;;;1.60;;
9102;SDS011;4587;51.434;6.788;2023-04-24T14:20:26;3.87;;;1.33;;
9102;SDS011;4587;51.434;6.788;2023-04-24T14:22:52;3.00;;;1.50;;
9102;SDS011;4587;51.434;6.788;2023-04-24T14:25:18;2.40;;;1.70;;
9102;SDS011;4587;51.434;6.788;2023-04-24T14:27:44;3.77;;;1.60;;
9102;SDS011;4587;51.434;6.788;2023-04-24T14:30:10;2.70;;;1.23;;
9102;SDS011;4587;51.434;6.788;2023-04-24T14:32:37;3.27;;;1.53;;
9102;SDS011;4587;51.434;6.788;2023-04-24T14:35:04;3.97;;;1.10;;
9102;SDS011;4587;51.434;6.788;2023-04-24T14:37:31;2.87;;;1.23;;
9102;SDS011;4587;51.434;6.788;2023-04-24T14:39:57;5.23;;;1.40;;
9102;SDS011;4587;51.434;6.788;2023-04-24T14:42:22;3.13;;;1.37;;
9102;SDS011;4587;51.434;6.788;2023-04-24T14:44:48;4.20;;;1.10;;
9102;SDS011;4587;51.434;6.788;2023-04-24T14:47:14;5.73;;;1.67;;
9102;SDS011;4587;51.434;6.788;2023-04-24T14:49:42;2.77;;;1.60;;
9102;SDS011;4587;51.434;6.788;2023-04-24T14:52:08;2.67;;;1.57;;
9102;SDS011;4587;51.434;6.788;2023-04-24T14:54:35;5.97;;;1.97;;
9102;SDS011;4587;51.434;6.788;2023-04-24T14:57:00;3.73;;;1.90;;
9102;SDS011;4587;51.434;6.788;2023-04-24T14:59:27;3.80;;;1.60;;
9102;SDS011;4587;51.434;6.788;2023-04-24T15:01:53;3.97;;;1.83;;
9102;SDS011;4587;51.434;6.788;2023-04-24T15:04:23;3.97;;;1.93;;
9102;SDS011;4587;51.434;6.788;2023-04-24T15:06:50;4.80;;;2.10;;
9102;SDS011;4587;51.434;6.788;2023-04-24T15:09:16;4.43;;;2.07;;
9102;SDS011;4587;51.434;6.788;2023-04-24T15:11:42;5.70;;;1.93;;
9102;SDS011;4587;51.434;6.788;2023-04-24T15:14:08;2.97;;;1.50;;
9102;SDS011;4587;51.434;6.788;2023-04-24T15:16:33;4.53;;;1.80;;